createdAt,value
2022-08-16T05:21:01.598Z,51.72
2022-08-16T05:23:05.712Z,51.52
2022-08-16T05:25:12.294Z,51.15
2022-08-16T05:27:15.315Z,51.16
2022-08-16T05:29:18.119Z,50.58
2022-08-16T05:31:24.140Z,50.49
2022-08-16T05:33:32.863Z,50.33
2022-08-16T05:35:36.646Z,49.99
2022-08-16T05:37:42.809Z,50.00
2022-08-16T05:39:45.681Z,49.90
2022-08-16T05:41:51.781Z,49.99
2022-08-16T05:43:59.180Z,49.54
2022-08-16T05:46:02.425Z,49.25
2022-08-16T05:48:27.294Z,49.55
2022-08-16T05:50:34.416Z,48.92
2022-08-16T05:52:37.458Z,49.40
2022-08-16T05:55:01.085Z,49.03
2022-08-16T05:57:05.456Z,48.66
2022-08-16T05:59:09.149Z,49.07
2022-08-16T06:01:13.665Z,48.52
2022-08-16T06:03:17.068Z,48.52
2022-08-16T06:05:21.058Z,48.32
2022-08-16T06:07:24.781Z,48.72
2022-08-16T06:09:37.179Z,48.29
2022-08-16T06:11:48.537Z,48.32
2022-08-16T06:13:55.291Z,47.72
2022-08-16T06:15:58.450Z,47.59
2022-08-16T06:18:02.444Z,47.74
2022-08-16T06:20:06.294Z,47.40
2022-08-16T06:22:09.400Z,47.47
2022-08-16T06:24:54.815Z,47.18
2022-08-16T06:26:57.461Z,47.38
2022-08-16T06:29:02.710Z,47.24
2022-08-16T06:31:06.791Z,47.60
2022-08-16T06:33:19.855Z,47.35
2022-08-16T06:35:26.003Z,47.10
2022-08-16T06:37:47.530Z,47.45
2022-08-16T06:39:54.365Z,47.59
2022-08-16T06:41:57.550Z,47.40
2022-08-16T06:44:01.426Z,47.50
2022-08-16T06:46:10.566Z,47.74
2022-08-16T06:48:13.837Z,47.64
2022-08-16T06:50:28.601Z,47.12
2022-08-16T06:53:00.661Z,47.13
2022-08-16T06:55:00.423Z,47.24
2022-08-16T06:57:03.455Z,47.37
2022-08-16T06:59:09.174Z,47.21
2022-08-16T07:01:15.880Z,47.70
2022-08-16T07:03:27.509Z,47.36
2022-08-16T07:05:41.786Z,47.63
2022-08-16T07:07:50.764Z,47.75
2022-08-16T07:09:55.291Z,47.69
2022-08-16T07:12:03.377Z,47.75
2022-08-16T07:14:26.375Z,47.96
2022-08-16T07:16:31.470Z,48.00
2022-08-16T07:18:35.178Z,48.18
2022-08-16T07:20:47.963Z,47.97
2022-08-16T07:22:59.226Z,47.89
2022-08-16T07:25:02.401Z,48.46
2022-08-16T07:27:08.615Z,48.02
2022-08-16T07:29:18.315Z,48.21
2022-08-16T07:31:22.367Z,48.47
2022-08-16T07:33:52.356Z,48.67
2022-08-16T07:35:50.762Z,48.51
2022-08-16T07:37:53.694Z,48.40
2022-08-16T07:39:56.633Z,48.45
2022-08-16T07:42:00.620Z,48.70
2022-08-16T07:44:03.826Z,48.63
2022-08-16T07:46:39.372Z,48.43
2022-08-16T07:48:43.891Z,48.89
2022-08-16T07:50:55.741Z,48.83
2022-08-16T07:53:02.519Z,48.47
2022-08-16T07:55:05.879Z,48.72
2022-08-16T07:57:11.343Z,48.63
2022-08-16T07:59:14.497Z,48.49
2022-08-16T08:01:18.010Z,48.89
2022-08-16T08:03:21.059Z,48.70
2022-08-16T08:05:35.634Z,48.75
2022-08-16T08:07:39.926Z,48.48
2022-08-16T08:09:48.823Z,48.57
2022-08-16T08:12:00.748Z,48.64
2022-08-16T08:14:06.637Z,48.82
2022-08-16T08:16:18.672Z,48.75
2022-08-16T08:18:29.923Z,49.05
2022-08-16T08:20:35.077Z,49.14
2022-08-16T08:22:39.417Z,48.69
2022-08-16T08:24:44.202Z,48.47
2022-08-16T08:26:50.349Z,48.72
2022-08-16T08:28:53.699Z,49.01
2022-08-16T08:31:04.170Z,48.86
2022-08-16T08:33:07.234Z,48.91
2022-08-16T08:35:12.033Z,48.83
2022-08-16T08:37:17.498Z,48.82
2022-08-16T08:39:21.163Z,49.05
2022-08-16T08:41:28.966Z,49.09
2022-08-16T08:43:41.397Z,48.79
2022-08-16T08:45:48.773Z,48.96
2022-08-16T08:47:59.081Z,48.88
2022-08-16T08:50:01.957Z,48.59
2022-08-16T08:52:08.092Z,48.54
2022-08-16T08:54:20.562Z,48.51
2022-08-16T08:56:25.642Z,48.47
2022-08-16T08:58:34.074Z,48.48
2022-08-16T09:00:51.008Z,48.76
2022-08-16T09:02:54.937Z,48.94
2022-08-16T09:04:59.841Z,48.95
2022-08-16T09:07:03.953Z,48.45
2022-08-16T09:09:09.525Z,48.60
2022-08-16T09:11:21.292Z,48.57
2022-08-16T09:13:24.767Z,49.02
2022-08-16T09:15:32.956Z,48.75
2022-08-16T09:17:51.589Z,48.45
2022-08-16T09:19:57.230Z,48.85
2022-08-16T09:22:01.878Z,48.95
2022-08-16T09:24:09.856Z,48.67
2022-08-16T09:26:45.924Z,48.76
2022-08-16T09:29:14.359Z,48.58
2022-08-16T09:31:13.930Z,48.27
2022-08-16T09:33:19.891Z,48.06
2022-08-16T09:35:23.932Z,47.93
2022-08-16T09:37:29.586Z,48.23
2022-08-16T09:39:41.454Z,48.23
2022-08-16T09:41:52.989Z,47.60
2022-08-16T09:44:02.649Z,47.51
2022-08-16T09:46:44.737Z,47.51
2022-08-16T09:48:51.594Z,47.62
2022-08-16T09:50:56.258Z,47.70
2022-08-16T09:52:59.617Z,47.82
2022-08-16T09:55:03.447Z,47.61
2022-08-16T09:57:07.900Z,47.20
2022-08-16T09:59:16.781Z,47.32
2022-08-16T10:01:19.813Z,47.15
2022-08-16T10:03:23.864Z,46.95
2022-08-16T10:05:27.210Z,47.14
2022-08-16T10:07:44.436Z,46.76
2022-08-16T10:09:54.526Z,46.78
2022-08-16T10:12:19.487Z,46.94
2022-08-16T10:14:33.427Z,46.82
2022-08-16T10:16:36.894Z,46.82
2022-08-16T10:19:06.377Z,47.10
2022-08-16T10:21:06.602Z,46.74
2022-08-16T10:23:17.546Z,46.91
2022-08-16T10:27:19.781Z,46.52
2022-08-16T10:27:46.847Z,46.39
2022-08-16T10:30:01.242Z,46.59
2022-08-16T10:32:09.228Z,46.30
2022-08-16T10:34:31.258Z,46.15
2022-08-16T10:36:39.225Z,46.08
2022-08-16T10:38:43.694Z,45.98
2022-08-16T10:40:46.894Z,45.97
2022-08-16T10:42:52.400Z,45.49
2022-08-16T10:44:56.818Z,45.63
2022-08-16T10:46:59.705Z,45.51
2022-08-16T10:49:05.913Z,45.33
2022-08-16T10:51:10.180Z,45.10
2022-08-16T10:53:13.718Z,45.19
2022-08-16T10:57:41.032Z,44.95
2022-08-16T10:59:51.735Z,44.82
2022-08-16T11:07:06.667Z,44.71
2022-08-16T11:09:25.764Z,44.58
2022-08-16T11:11:32.196Z,44.34
2022-08-16T11:16:25.678Z,44.53
2022-08-16T11:18:55.007Z,44.30
2022-08-16T11:20:51.975Z,44.43
2022-08-16T11:23:00.446Z,44.48
2022-08-16T11:27:32.690Z,44.50
2022-08-16T11:29:39.045Z,44.23
2022-08-16T11:31:45.972Z,44.57
2022-08-16T11:33:58.685Z,44.46
2022-08-16T11:38:51.501Z,44.45
2022-08-16T11:40:53.182Z,44.15
2022-08-16T11:42:56.592Z,44.24
2022-08-16T11:44:59.475Z,44.19
2022-08-16T11:47:02.554Z,44.14
2022-08-16T11:49:12.788Z,44.03
2022-08-16T11:51:16.478Z,43.54
2022-08-16T11:53:20.196Z,43.82
2022-08-16T11:55:24.916Z,43.44
2022-08-16T11:57:28.339Z,43.50
2022-08-16T11:59:31.430Z,43.37
2022-08-16T12:01:55.453Z,43.62
2022-08-16T12:03:58.769Z,43.47
2022-08-16T12:06:10.976Z,43.72
2022-08-16T12:08:15.605Z,43.37
2022-08-16T12:10:21.345Z,43.66
2022-08-16T12:12:24.635Z,43.69
2022-08-16T12:14:35.261Z,43.57
2022-08-16T12:16:39.750Z,43.42
2022-08-16T12:18:52.883Z,43.33
2022-08-16T12:20:58.343Z,43.60
2022-08-16T12:23:05.163Z,43.36
2022-08-16T12:25:11.019Z,43.31
2022-08-16T12:27:14.033Z,43.47
2022-08-16T12:29:19.747Z,43.17
2022-08-16T12:31:23.210Z,43.17
2022-08-16T12:33:26.625Z,43.46
2022-08-16T12:35:31.679Z,43.35
2022-08-16T12:37:35.292Z,43.26
2022-08-16T12:39:39.781Z,42.91
2022-08-16T12:41:54.760Z,43.10
2022-08-16T12:44:01.385Z,42.88
2022-08-16T12:46:04.497Z,42.91
2022-08-16T12:48:34.071Z,42.82
2022-08-16T12:50:38.926Z,42.77
2022-08-16T12:52:52.500Z,42.81
2022-08-16T12:55:00.243Z,42.85
2022-08-16T12:57:03.544Z,42.50
2022-08-16T12:59:11.503Z,42.56
2022-08-16T13:01:14.884Z,42.60
2022-08-16T13:03:21.234Z,42.68
2022-08-16T13:05:27.053Z,42.54
2022-08-16T13:07:42.343Z,42.06
2022-08-16T13:09:54.302Z,42.21
2022-08-16T13:12:05.501Z,42.33
2022-08-16T13:14:08.505Z,41.94
2022-08-16T13:16:24.939Z,41.97
2022-08-16T13:18:34.583Z,41.77
2022-08-16T13:20:38.598Z,41.75
2022-08-16T13:22:45.819Z,41.75
2022-08-16T13:24:51.300Z,41.45
2022-08-16T13:26:54.346Z,41.26
2022-08-16T13:28:58.741Z,41.14
2022-08-16T13:31:03.249Z,41.03
2022-08-16T13:33:12.332Z,41.14
2022-08-16T13:35:16.226Z,40.91
2022-08-16T13:37:20.196Z,40.80
2022-08-16T13:39:23.092Z,40.64
2022-08-16T13:41:30.312Z,40.38
2022-08-16T13:43:33.898Z,40.31
2022-08-16T13:45:38.193Z,40.47
2022-08-16T13:47:48.543Z,40.52
2022-08-16T13:49:56.376Z,40.07
2022-08-16T13:51:59.785Z,39.96
2022-08-16T13:54:04.590Z,40.22
2022-08-16T13:56:10.517Z,40.25
2022-08-16T13:58:36.829Z,40.06
2022-08-16T14:00:43.340Z,40.06
2022-08-16T14:02:47.192Z,40.13
2022-08-16T14:05:02.902Z,40.11
2022-08-16T14:07:12.139Z,40.04
2022-08-16T14:09:22.660Z,40.07
2022-08-16T14:11:26.830Z,39.76
2022-08-16T14:13:32.315Z,39.75
2022-08-16T14:15:37.158Z,39.85
2022-08-16T14:18:15.002Z,39.46
2022-08-16T14:20:19.142Z,39.38
2022-08-16T14:22:30.310Z,39.35
2022-08-16T14:24:34.574Z,39.48
2022-08-16T14:26:37.529Z,39.27
2022-08-16T14:28:40.541Z,39.54
2022-08-16T14:30:45.078Z,39.30
2022-08-16T14:32:52.922Z,39.25
2022-08-16T14:34:58.533Z,39.24
2022-08-16T14:37:03.617Z,39.43
2022-08-16T14:39:06.538Z,39.22
2022-08-16T14:41:10.339Z,39.09
2022-08-16T14:43:15.608Z,38.83
2022-08-16T14:45:22.505Z,38.98
2022-08-16T14:47:25.378Z,39.03
2022-08-16T14:49:40.670Z,39.03
2022-08-16T14:51:46.218Z,38.77
2022-08-16T14:53:49.763Z,38.78
2022-08-16T14:55:55.890Z,38.80
2022-08-16T14:57:59.189Z,38.62
2022-08-16T15:00:05.987Z,38.95
2022-08-16T15:02:23.498Z,38.74
2022-08-16T15:04:48.045Z,38.79
2022-08-16T15:06:52.601Z,38.73
2022-08-16T15:08:58.367Z,38.88
2022-08-16T15:11:01.327Z,38.86
2022-08-16T15:13:09.525Z,38.86
2022-08-16T15:15:16.550Z,38.85
2022-08-16T15:17:20.207Z,38.85
2022-08-16T15:19:27.172Z,38.79
2022-08-16T15:21:32.202Z,38.69
2022-08-16T15:23:36.041Z,38.69
2022-08-16T15:25:43.258Z,38.70
2022-08-16T15:27:54.654Z,38.90
2022-08-16T15:29:58.995Z,38.72
2022-08-16T15:32:04.075Z,38.43
2022-08-16T15:34:18.967Z,38.49
2022-08-16T15:36:25.912Z,38.62
2022-08-16T15:38:54.801Z,38.58
2022-08-16T15:40:57.710Z,38.35
2022-08-16T15:43:02.247Z,38.38
2022-08-16T15:45:12.209Z,38.33
2022-08-16T15:47:15.559Z,38.32
2022-08-16T15:49:18.761Z,38.36
2022-08-16T15:51:21.765Z,38.40
2022-08-16T15:53:27.299Z,38.42
2022-08-16T15:55:35.343Z,38.16
2022-08-16T15:57:41.675Z,38.13
2022-08-16T15:59:52.752Z,38.12
2022-08-16T16:01:59.273Z,38.02
2022-08-16T16:04:02.262Z,38.29
2022-08-16T16:06:06.879Z,38.26
2022-08-16T16:08:13.512Z,38.42
2022-08-16T16:10:29.728Z,38.41
2022-08-16T16:12:53.926Z,38.61
2022-08-16T16:14:57.447Z,38.76
2022-08-16T16:17:00.906Z,38.93
2022-08-16T16:19:05.032Z,38.96
2022-08-16T16:21:13.436Z,38.91
2022-08-16T16:23:26.802Z,38.89
2022-08-16T16:25:33.870Z,38.86
2022-08-16T16:27:38.378Z,38.80
2022-08-16T16:29:41.814Z,38.96
2022-08-16T16:31:59.727Z,38.80
2022-08-16T16:34:04.159Z,38.97
2022-08-16T16:36:08.414Z,39.06
2022-08-16T16:38:11.529Z,38.85
2022-08-16T16:40:16.922Z,38.99
2022-08-16T16:42:35.497Z,38.81
2022-08-16T16:44:52.020Z,38.71
2022-08-16T16:46:56.676Z,38.77
2022-08-16T16:49:03.898Z,38.94
2022-08-16T16:51:10.325Z,38.61
2022-08-16T16:53:17.194Z,38.82
2022-08-16T16:55:21.224Z,38.56
2022-08-16T16:57:44.599Z,38.66
2022-08-16T16:59:50.085Z,38.60
2022-08-16T17:02:41.732Z,38.66
2022-08-16T17:04:31.817Z,38.76
2022-08-16T17:06:36.534Z,38.65
2022-08-16T17:08:41.363Z,38.57
2022-08-16T17:10:48.821Z,38.64
2022-08-16T17:12:52.375Z,38.44
2022-08-16T17:15:01.038Z,38.42
2022-08-16T17:17:06.971Z,38.29
2022-08-16T17:19:16.226Z,38.34
2022-08-16T17:21:25.849Z,38.13
2022-08-16T17:23:58.779Z,38.13
2022-08-16T17:28:58.754Z,37.99
2022-08-16T17:30:44.958Z,37.80
2022-08-16T17:32:54.950Z,37.78
2022-08-16T17:35:00.406Z,37.59
2022-08-16T17:37:05.385Z,37.51
2022-08-16T17:39:12.131Z,37.44
2022-08-16T17:39:28.400Z,38.02
2022-08-16T17:41:18.382Z,37.36
2022-08-16T17:43:23.928Z,37.34
2022-08-16T17:45:27.043Z,37.32
2022-08-16T17:47:32.271Z,37.25
2022-08-16T17:49:35.041Z,37.15
2022-08-16T17:51:38.174Z,37.30
2022-08-16T17:53:41.718Z,36.91
2022-08-16T17:55:48.516Z,37.01
2022-08-16T17:57:52.264Z,36.81
2022-08-16T17:59:55.243Z,36.84
2022-08-16T18:01:58.387Z,36.53
2022-08-16T18:04:08.714Z,36.29
2022-08-16T18:06:17.622Z,36.38
2022-08-16T18:08:21.237Z,36.28
2022-08-16T18:10:33.581Z,36.19
2022-08-16T18:12:55.264Z,36.11
2022-08-16T18:15:00.259Z,35.97
2022-08-16T18:17:03.222Z,35.94
2022-08-16T18:19:07.763Z,35.86
2022-08-16T18:21:29.188Z,35.67
2022-08-16T18:23:32.625Z,35.40
2022-08-16T18:25:36.071Z,35.39
2022-08-16T18:27:38.956Z,35.56
2022-08-16T18:29:42.237Z,35.32
2022-08-16T18:31:45.220Z,35.13
2022-08-16T18:33:49.370Z,35.01
2022-08-16T18:35:59.805Z,35.15
2022-08-16T18:38:02.933Z,34.94
2022-08-16T18:40:06.699Z,34.93
2022-08-16T18:42:11.533Z,34.90
2022-08-16T18:44:25.047Z,34.94
2022-08-16T18:46:29.840Z,34.99
2022-08-16T18:48:32.756Z,34.72
2022-08-16T18:51:03.353Z,34.51
2022-08-16T18:53:03.198Z,34.61
2022-08-16T18:55:14.842Z,34.62
2022-08-16T18:57:17.829Z,34.37
2022-08-16T18:59:20.882Z,34.41
2022-08-16T19:01:23.967Z,34.36
2022-08-16T19:03:29.386Z,34.26
2022-08-16T19:05:34.187Z,34.29
2022-08-16T19:07:37.186Z,34.11
2022-08-16T19:09:41.390Z,34.29
2022-08-16T19:11:44.245Z,34.25
2022-08-16T19:13:47.456Z,34.11
2022-08-16T19:15:53.270Z,34.26
2022-08-16T19:17:56.824Z,34.01
2022-08-16T19:19:59.659Z,34.07
2022-08-16T19:22:02.945Z,33.99
2022-08-16T19:24:06.211Z,33.87
2022-08-16T19:26:24.496Z,33.99
2022-08-16T19:28:51.692Z,34.11
2022-08-16T19:30:53.863Z,34.28
2022-08-16T19:32:56.751Z,34.20
2022-08-16T19:35:00.964Z,34.28
2022-08-16T19:37:03.829Z,34.28
2022-08-16T19:39:09.576Z,34.49
2022-08-16T19:41:12.597Z,34.37
2022-08-16T19:43:16.889Z,34.33
2022-08-16T19:45:21.199Z,34.17
2022-08-16T19:47:24.131Z,34.15
2022-08-16T19:49:26.947Z,34.02
2022-08-16T19:51:29.792Z,34.11
2022-08-16T19:53:33.058Z,33.93
2022-08-16T19:55:37.044Z,33.91
2022-08-16T19:57:40.517Z,33.77
2022-08-16T19:59:44.982Z,34.21
2022-08-16T20:01:49.280Z,33.87
2022-08-16T20:03:52.107Z,33.92
2022-08-16T20:05:55.565Z,33.96
2022-08-16T20:08:04.201Z,34.10
2022-08-16T20:10:08.245Z,34.04
2022-08-16T20:12:13.088Z,34.04
2022-08-16T20:14:24.899Z,34.02
